sensor_id;sensor_type;location;lat;lon;timestamp;P1;durP1;ratioP1;P2;durP2;ratioP2
37151;SDS011;23046;50.112;8.952;2023-08-17T00:00:05;1.77;;;0.90;;
37151;SDS011;23046;50.112;8.952;2023-08-17T00:00:20;1.45;;;0.90;;
37151;SDS011;23046;50.112;8.952;2023-08-17T00:00:30;1.33;;;0.85;;
37151;SDS011;23046;50.112;8.952;2023-08-17T00:00:40;1.00;;;0.80;;
37151;SDS011;23046;50.112;8.952;2023-08-17T00:00:50;1.37;;;0.70;;
37151;SDS011;23046;50.112;8.952;2023-08-17T00:01:01;1.17;;;0.75;;
37151;SDS011;23046;50.112;8.952;2023-08-17T00:01:11;1.30;;;0.73;;
37151;SDS011;23046;50.112;8.952;2023-08-17T00:01:21;0.80;;;0.80;;
37151;SDS011;23046;50.112;8.952;2023-08-17T00:01:32;2.13;;;0.80;;
37151;SDS011;23046;50.112;8.952;2023-08-17T00:01:42;2.45;;;0.77;;
37151;SDS011;23046;50.112;8.952;2023-08-17T00:01:52;2.97;;;0.70;;
37151;SDS011;23046;50.112;8.952;2023-08-17T00:02:02;1.27;;;0.73;;
37151;SDS011;23046;50.112;8.952;2023-08-17T00:02:13;1.53;;;0.80;;
37151;SDS011;23046;50.112;8.952;2023-08-17T00:02:23;1.13;;;0.85;;
37151;SDS011;23046;50.112;8.952;2023-08-17T00:02:33;1.70;;;0.83;;
37151;SDS011;23046;50.112;8.952;2023-08-17T00:02:43;1.33;;;0.80;;
37151;SDS011;23046;50.112;8.952;2023-08-17T00:02:54;1.50;;;0.70;;
37151;SDS011;23046;50.112;8.952;2023-08-17T00:03:04;0.95;;;0.70;;
37151;SDS011;23046;50.112;8.952;2023-08-17T00:03:14;1.40;;;0.70;;
37151;SDS011;23046;50.112;8.952;2023-08-17T00:03:24;2.67;;;0.80;;
37151;SDS011;23046;50.112;8.952;2023-08-17T00:03:35;3.00;;;0.83;;
37151;SDS011;23046;50.112;8.952;2023-08-17T00:03:45;2.70;;;0.90;;
37151;SDS011;23046;50.112;8.952;2023-08-17T00:03:55;1.42;;;0.90;;
37151;SDS011;23046;50.112;8.952;2023-08-17T00:04:05;1.70;;;0.90;;
37151;SDS011;23046;50.112;8.952;2023-08-17T00:04:15;2.30;;;0.90;;
37151;SDS011;23046;50.112;8.952;2023-08-17T00:04:26;2.05;;;0.90;;
37151;SDS011;23046;50.112;8.952;2023-08-17T00:04:36;1.40;;;0.73;;
37151;SDS011;23046;50.112;8.952;2023-08-17T00:04:47;0.73;;;0.70;;
37151;SDS011;23046;50.112;8.952;2023-08-17T00:04:57;0.87;;;0.70;;
37151;SDS011;23046;50.112;8.952;2023-08-17T00:05:07;2.90;;;0.65;;
37151;SDS011;23046;50.112;8.952;2023-08-17T00:05:18;2.83;;;0.60;;
37151;SDS011;23046;50.112;8.952;2023-08-17T00:05:28;2.57;;;0.60;;
37151;SDS011;23046;50.112;8.952;2023-08-17T00:05:39;0.90;;;0.70;;
37151;SDS011;23046;50.112;8.952;2023-08-17T00:05:49;0.95;;;0.75;;
37151;SDS011;23046;50.112;8.952;2023-08-17T00:05:59;0.90;;;0.80;;
37151;SDS011;23046;50.112;8.952;2023-08-17T00:06:10;0.90;;;0.70;;
37151;SDS011;23046;50.112;8.952;2023-08-17T00:06:20;0.80;;;0.77;;
37151;SDS011;23046;50.112;8.952;2023-08-17T00:06:30;1.03;;;0.70;;
37151;SDS011;23046;50.112;8.952;2023-08-17T00:06:41;1.47;;;0.80;;
37151;SDS011;23046;50.112;8.952;2023-08-17T00:06:51;2.10;;;0.80;;
37151;SDS011;23046;50.112;8.952;2023-08-17T00:07:01;2.27;;;0.80;;
37151;SDS011;23046;50.112;8.952;2023-08-17T00:07:11;1.60;;;0.80;;
37151;SDS011;23046;50.112;8.952;2023-08-17T00:07:22;1.00;;;0.80;;
37151;SDS011;23046;50.112;8.952;2023-08-17T00:07:32;0.80;;;0.80;;
37151;SDS011;23046;50.112;8.952;2023-08-17T00:07:42;0.80;;;0.70;;
37151;SDS011;23046;50.112;8.952;2023-08-17T00:07:52;0.70;;;0.70;;
37151;SDS011;23046;50.112;8.952;2023-08-17T00:08:03;0.70;;;0.70;;
37151;SDS011;23046;50.112;8.952;2023-08-17T00:08:13;0.70;;;0.70;;
37151;SDS011;23046;50.112;8.952;2023-08-17T00:08:23;0.80;;;0.80;;
37151;SDS011;23046;50.112;8.952;2023-08-17T00:08:33;0.77;;;0.77;;
37151;SDS011;23046;50.112;8.952;2023-08-17T00:08:44;0.70;;;0.70;;
37151;SDS011;23046;50.112;8.952;2023-08-17T00:08:54;0.80;;;0.70;;
37151;SDS011;23046;50.112;8.952;2023-08-17T00:09:04;0.70;;;0.70;;
37151;SDS011;23046;50.112;8.952;2023-08-17T00:09:14;1.00;;;0.80;;
37151;SDS011;23046;50.112;8.952;2023-08-17T00:09:25;0.88;;;0.82;;
37151;SDS011;23046;50.112;8.952;2023-08-17T00:09:35;0.90;;;0.87;;
37151;SDS011;23046;50.112;8.952;2023-08-17T00:09:45;0.90;;;0.90;;
37151;SDS011;23046;50.112;8.952;2023-08-17T00:09:55;0.87;;;0.87;;
37151;SDS011;23046;50.112;8.952;2023-08-17T00:10:05;1.00;;;0.83;;
37151;SDS011;23046;50.112;8.952;2023-08-17T00:10:16;0.95;;;0.77;;
37151;SDS011;23046;50.112;8.952;2023-08-17T00:10:26;1.93;;;0.70;;
37151;SDS011;23046;50.112;8.952;2023-08-17T00:10:36;2.83;;;0.77;;
37151;SDS011;23046;50.112;8.952;2023-08-17T00:10:48;3.00;;;0.70;;
37151;SDS011;23046;50.112;8.952;2023-08-17T00:10:59;1.90;;;0.75;;
37151;SDS011;23046;50.112;8.952;2023-08-17T00:11:09;0.80;;;0.80;;
37151;SDS011;23046;50.112;8.952;2023-08-17T00:11:19;0.80;;;0.80;;
37151;SDS011;23046;50.112;8.952;2023-08-17T00:11:29;0.70;;;0.70;;
37151;SDS011;23046;50.112;8.952;2023-08-17T00:11:40;0.60;;;0.60;;
37151;SDS011;23046;50.112;8.952;2023-08-17T00:11:50;1.40;;;0.70;;
37151;SDS011;23046;50.112;8.952;2023-08-17T00:12:00;2.40;;;0.73;;
37151;SDS011;23046;50.112;8.952;2023-08-17T00:12:10;2.90;;;0.90;;
37151;SDS011;23046;50.112;8.952;2023-08-17T00:12:20;1.97;;;0.90;;
37151;SDS011;23046;50.112;8.952;2023-08-17T00:12:31;1.38;;;0.82;;
37151;SDS011;23046;50.112;8.952;2023-08-17T00:12:41;1.27;;;0.70;;
37151;SDS011;23046;50.112;8.952;2023-08-17T00:12:51;1.87;;;0.70;;
37151;SDS011;23046;50.112;8.952;2023-08-17T00:13:01;1.57;;;0.63;;
37151;SDS011;23046;50.112;8.952;2023-08-17T00:13:13;1.38;;;0.70;;
37151;SDS011;23046;50.112;8.952;2023-08-17T00:13:24;0.77;;;0.73;;
37151;SDS011;23046;50.112;8.952;2023-08-17T00:13:35;0.77;;;0.77;;
37151;SDS011;23046;50.112;8.952;2023-08-17T00:13:45;0.80;;;0.80;;
37151;SDS011;23046;50.112;8.952;2023-08-17T00:13:55;1.67;;;0.80;;
37151;SDS011;23046;50.112;8.952;2023-08-17T00:14:05;2.10;;;0.80;;
37151;SDS011;23046;50.112;8.952;2023-08-17T00:14:15;2.20;;;0.77;;
37151;SDS011;23046;50.112;8.952;2023-08-17T00:14:26;1.67;;;0.80;;
37151;SDS011;23046;50.112;8.952;2023-08-17T00:14:36;1.40;;;0.90;;
37151;SDS011;23046;50.112;8.952;2023-08-17T00:14:46;1.50;;;0.90;;
37151;SDS011;23046;50.112;8.952;2023-08-17T00:14:56;1.43;;;0.80;;
37151;SDS011;23046;50.112;8.952;2023-08-17T00:15:07;2.20;;;0.80;;
37151;SDS011;23046;50.112;8.952;2023-08-17T00:15:17;1.97;;;0.80;;
37151;SDS011;23046;50.112;8.952;2023-08-17T00:15:27;2.10;;;0.80;;
37151;SDS011;23046;50.112;8.952;2023-08-17T00:15:37;1.70;;;0.80;;
37151;SDS011;23046;50.112;8.952;2023-08-17T00:15:47;2.03;;;0.80;;
37151;SDS011;23046;50.112;8.952;2023-08-17T00:15:58;1.60;;;0.83;;
37151;SDS011;23046;50.112;8.952;2023-08-17T00:16:08;1.33;;;0.90;;
37151;SDS011;23046;50.112;8.952;2023-08-17T00:16:18;0.80;;;0.73;;
37151;SDS011;23046;50.112;8.952;2023-08-17T00:16:28;0.70;;;0.70;;
37151;SDS011;23046;50.112;8.952;2023-08-17T00:16:39;0.83;;;0.73;;
37151;SDS011;23046;50.112;8.952;2023-08-17T00:16:49;1.40;;;1.00;;
37151;SDS011;23046;50.112;8.952;2023-08-17T00:17:00;1.45;;;1.13;;
37151;SDS011;23046;50.112;8.952;2023-08-17T00:17:10;1.13;;;0.90;;
37151;SDS011;23046;50.112;8.952;2023-08-17T00:17:20;0.70;;;0.70;;
37151;SDS011;23046;50.112;8.952;2023-08-17T00:17:30;1.35;;;0.68;;
37151;SDS011;23046;50.112;8.952;2023-08-17T00:17:40;2.20;;;0.77;;
37151;SDS011;23046;50.112;8.952;2023-08-17T00:17:51;2.40;;;0.80;;
37151;SDS011;23046;50.112;8.952;2023-08-17T00:18:01;1.70;;;0.70;;
37151;SDS011;23046;50.112;8.952;2023-08-17T00:18:12;0.75;;;0.60;;
37151;SDS011;23046;50.112;8.952;2023-08-17T00:18:22;0.60;;;0.60;;
37151;SDS011;23046;50.112;8.952;2023-08-17T00:18:32;1.08;;;0.68;;
37151;SDS011;23046;50.112;8.952;2023-08-17T00:18:42;1.23;;;0.70;;
37151;SDS011;23046;50.112;8.952;2023-08-17T00:18:53;1.13;;;0.70;;
37151;SDS011;23046;50.112;8.952;2023-08-17T00:19:03;0.67;;;0.60;;
37151;SDS011;23046;50.112;8.952;2023-08-17T00:19:13;1.08;;;0.70;;
37151;SDS011;23046;50.112;8.952;2023-08-17T00:19:23;1.10;;;0.70;;
37151;SDS011;23046;50.112;8.952;2023-08-17T00:19:34;1.30;;;0.80;;
37151;SDS011;23046;50.112;8.952;2023-08-17T00:19:44;1.20;;;0.80;;
37151;SDS011;23046;50.112;8.952;2023-08-17T00:19:54;1.20;;;0.90;;
37151;SDS011;23046;50.112;8.952;2023-08-17T00:20:05;1.10;;;0.88;;
37151;SDS011;23046;50.112;8.952;2023-08-17T00:20:15;2.23;;;0.80;;
37151;SDS011;23046;50.112;8.952;2023-08-17T00:20:26;2.17;;;0.82;;
37151;SDS011;23046;50.112;8.952;2023-08-17T00:20:36;1.93;;;0.70;;
37151;SDS011;23046;50.112;8.952;2023-08-17T00:20:46;0.70;;;0.70;;
37151;SDS011;23046;50.112;8.952;2023-08-17T00:20:56;0.73;;;0.73;;
37151;SDS011;23046;50.112;8.952;2023-08-17T00:21:07;0.80;;;0.80;;
37151;SDS011;23046;50.112;8.952;2023-08-17T00:21:17;0.80;;;0.80;;
37151;SDS011;23046;50.112;8.952;2023-08-17T00:21:27;0.75;;;0.75;;
37151;SDS011;23046;50.112;8.952;2023-08-17T00:21:38;0.70;;;0.70;;
37151;SDS011;23046;50.112;8.952;2023-08-17T00:21:48;1.13;;;0.80;;
37151;SDS011;23046;50.112;8.952;2023-08-17T00:21:58;1.27;;;0.90;;
37151;SDS011;23046;50.112;8.952;2023-08-17T00:22:08;1.30;;;0.88;;
37151;SDS011;23046;50.112;8.952;2023-08-17T00:22:19;0.90;;;0.80;;
37151;SDS011;23046;50.112;8.952;2023-08-17T00:22:29;1.47;;;0.80;;
37151;SDS011;23046;50.112;8.952;2023-08-17T00:22:39;1.90;;;0.80;;
37151;SDS011;23046;50.112;8.952;2023-08-17T00:22:49;1.60;;;0.80;;
37151;SDS011;23046;50.112;8.952;2023-08-17T00:22:59;1.07;;;0.80;;
37151;SDS011;23046;50.112;8.952;2023-08-17T00:23:10;0.73;;;0.70;;
37151;SDS011;23046;50.112;8.952;2023-08-17T00:23:20;0.80;;;0.70;;
37151;SDS011;23046;50.112;8.952;2023-08-17T00:23:31;0.75;;;0.70;;
37151;SDS011;23046;50.112;8.952;2023-08-17T00:23:41;0.80;;;0.80;;
37151;SDS011;23046;50.112;8.952;2023-08-17T00:23:51;0.80;;;0.80;;
37151;SDS011;23046;50.112;8.952;2023-08-17T00:24:01;0.97;;;0.80;;
37151;SDS011;23046;50.112;8.952;2023-08-17T00:24:12;1.02;;;0.68;;
37151;SDS011;23046;50.112;8.952;2023-08-17T00:24:22;1.33;;;0.77;;
37151;SDS011;23046;50.112;8.952;2023-08-17T00:24:32;0.97;;;0.73;;
37151;SDS011;23046;50.112;8.952;2023-08-17T00:24:42;0.97;;;0.80;;
37151;SDS011;23046;50.112;8.952;2023-08-17T00:24:54;0.85;;;0.80;;
37151;SDS011;23046;50.112;8.952;2023-08-17T00:25:05;0.90;;;0.77;;
37151;SDS011;23046;50.112;8.952;2023-08-17T00:25:15;0.80;;;0.70;;
37151;SDS011;23046;50.112;8.952;2023-08-17T00:25:25;0.67;;;0.60;;
37151;SDS011;23046;50.112;8.952;2023-08-17T00:25:36;0.80;;;0.60;;
37151;SDS011;23046;50.112;8.952;2023-08-17T00:25:46;1.05;;;0.65;;
37151;SDS011;23046;50.112;8.952;2023-08-17T00:25:58;1.10;;;0.70;;
37151;SDS011;23046;50.112;8.952;2023-08-17T00:26:08;1.00;;;0.70;;
37151;SDS011;23046;50.112;8.952;2023-08-17T00:26:18;0.70;;;0.70;;
37151;SDS011;23046;50.112;8.952;2023-08-17T00:26:30;0.68;;;0.60;;
37151;SDS011;23046;50.112;8.952;2023-08-17T00:26:40;0.90;;;0.70;;
37151;SDS011;23046;50.112;8.952;2023-08-17T00:26:51;1.15;;;0.80;;
37151;SDS011;23046;50.112;8.952;2023-08-17T00:27:01;0.90;;;0.70;;
37151;SDS011;23046;50.112;8.952;2023-08-17T00:27:11;0.97;;;0.80;;
37151;SDS011;23046;50.112;8.952;2023-08-17T00:27:22;1.23;;;0.90;;
37151;SDS011;23046;50.112;8.952;2023-08-17T00:27:32;1.10;;;0.82;;
37151;SDS011;23046;50.112;8.952;2023-08-17T00:27:43;0.85;;;0.77;;
37151;SDS011;23046;50.112;8.952;2023-08-17T00:27:53;1.03;;;0.80;;
37151;SDS011;23046;50.112;8.952;2023-08-17T00:28:03;2.07;;;1.00;;
37151;SDS011;23046;50.112;8.952;2023-08-17T00:28:15;2.50;;;1.00;;
37151;SDS011;23046;50.112;8.952;2023-08-17T00:28:25;2.40;;;0.95;;
37151;SDS011;23046;50.112;8.952;2023-08-17T00:28:35;2.03;;;0.80;;
37151;SDS011;23046;50.112;8.952;2023-08-17T00:28:46;1.80;;;0.80;;
37151;SDS011;23046;50.112;8.952;2023-08-17T00:28:56;1.42;;;0.73;;
37151;SDS011;23046;50.112;8.952;2023-08-17T00:29:06;0.93;;;0.70;;
37151;SDS011;23046;50.112;8.952;2023-08-17T00:29:17;0.73;;;0.73;;
37151;SDS011;23046;50.112;8.952;2023-08-17T00:29:27;0.80;;;0.80;;
37151;SDS011;23046;50.112;8.952;2023-08-17T00:29:38;1.03;;;0.93;;
37151;SDS011;23046;50.112;8.952;2023-08-17T00:29:48;0.98;;;0.90;;
37151;SDS011;23046;50.112;8.952;2023-08-17T00:29:58;0.80;;;0.77;;
37151;SDS011;23046;50.112;8.952;2023-08-17T00:30:09;1.25;;;0.70;;
37151;SDS011;23046;50.112;8.952;2023-08-17T00:30:21;2.22;;;0.70;;
37151;SDS011;23046;50.112;8.952;2023-08-17T00:30:31;2.37;;;0.70;;
37151;SDS011;23046;50.112;8.952;2023-08-17T00:30:41;1.80;;;0.60;;
37151;SDS011;23046;50.112;8.952;2023-08-17T00:30:51;1.00;;;0.80;;
37151;SDS011;23046;50.112;8.952;2023-08-17T00:31:01;1.07;;;0.77;;
37151;SDS011;23046;50.112;8.952;2023-08-17T00:31:12;1.13;;;0.80;;
37151;SDS011;23046;50.112;8.952;2023-08-17T00:31:22;1.02;;;0.70;;
37151;SDS011;23046;50.112;8.952;2023-08-17T00:31:32;0.80;;;0.77;;
37151;SDS011;23046;50.112;8.952;2023-08-17T00:31:43;0.73;;;0.70;;
37151;SDS011;23046;50.112;8.952;2023-08-17T00:31:53;1.00;;;0.70;;
37151;SDS011;23046;50.112;8.952;2023-08-17T00:32:03;1.00;;;0.70;;
37151;SDS011;23046;50.112;8.952;2023-08-17T00:32:14;0.87;;;0.80;;
37151;SDS011;23046;50.112;8.952;2023-08-17T00:32:25;0.82;;;0.77;;
37151;SDS011;23046;50.112;8.952;2023-08-17T00:32:35;1.00;;;0.73;;
37151;SDS011;23046;50.112;8.952;2023-08-17T00:32:45;1.27;;;0.80;;
37151;SDS011;23046;50.112;8.952;2023-08-17T00:32:56;1.23;;;0.80;;
37151;SDS011;23046;50.112;8.952;2023-08-17T00:33:06;1.90;;;0.83;;
37151;SDS011;23046;50.112;8.952;2023-08-17T00:33:16;2.23;;;0.70;;
37151;SDS011;23046;50.112;8.952;2023-08-17T00:33:26;2.15;;;0.80;;
37151;SDS011;23046;50.112;8.952;2023-08-17T00:33:37;2.00;;;0.83;;
37151;SDS011;23046;50.112;8.952;2023-08-17T00:33:47;1.50;;;0.90;;
37151;SDS011;23046;50.112;8.952;2023-08-17T00:33:57;2.37;;;0.90;;
37151;SDS011;23046;50.112;8.952;2023-08-17T00:34:07;2.00;;;0.95;;
37151;SDS011;23046;50.112;8.952;2023-08-17T00:34:18;2.00;;;0.80;;
37151;SDS011;23046;50.112;8.952;2023-08-17T00:34:28;0.90;;;0.75;;
37151;SDS011;23046;50.112;8.952;2023-08-17T00:34:39;0.70;;;0.60;;
37151;SDS011;23046;50.112;8.952;2023-08-17T00:34:49;0.80;;;0.70;;
37151;SDS011;23046;50.112;8.952;2023-08-17T00:34:59;0.83;;;0.70;;
37151;SDS011;23046;50.112;8.952;2023-08-17T00:35:11;1.27;;;0.80;;
37151;SDS011;23046;50.112;8.952;2023-08-17T00:35:21;1.20;;;0.80;;
37151;SDS011;23046;50.112;8.952;2023-08-17T00:35:33;2.03;;;0.80;;
37151;SDS011;23046;50.112;8.952;2023-08-17T00:35:43;1.90;;;0.80;;
37151;SDS011;23046;50.112;8.952;2023-08-17T00:35:53;1.80;;;0.80;;
37151;SDS011;23046;50.112;8.952;2023-08-17T00:36:03;2.07;;;0.80;;
37151;SDS011;23046;50.112;8.952;2023-08-17T00:36:14;2.00;;;0.80;;
37151;SDS011;23046;50.112;8.952;2023-08-17T00:36:24;2.10;;;0.90;;
37151;SDS011;23046;50.112;8.952;2023-08-17T00:36:34;1.00;;;0.80;;
37151;SDS011;23046;50.112;8.952;2023-08-17T00:36:45;1.05;;;0.77;;
37151;SDS011;23046;50.112;8.952;2023-08-17T00:36:55;1.03;;;0.67;;
37151;SDS011;23046;50.112;8.952;2023-08-17T00:37:05;1.60;;;0.80;;
37151;SDS011;23046;50.112;8.952;2023-08-17T00:37:15;1.33;;;0.80;;
37151;SDS011;23046;50.112;8.952;2023-08-17T00:37:25;1.90;;;0.90;;
37151;SDS011;23046;50.112;8.952;2023-08-17T00:37:36;2.65;;;0.70;;
37151;SDS011;23046;50.112;8.952;2023-08-17T00:37:46;3.13;;;0.77;;
37151;SDS011;23046;50.112;8.952;2023-08-17T00:37:56;2.60;;;0.87;;
37151;SDS011;23046;50.112;8.952;2023-08-17T00:38:06;1.83;;;1.00;;
37151;SDS011;23046;50.112;8.952;2023-08-17T00:38:17;1.27;;;0.93;;
37151;SDS011;23046;50.112;8.952;2023-08-17T00:38:27;1.30;;;0.90;;
37151;SDS011;23046;50.112;8.952;2023-08-17T00:38:37;0.77;;;0.70;;
37151;SDS011;23046;50.112;8.952;2023-08-17T00:38:47;0.73;;;0.70;;
37151;SDS011;23046;50.112;8.952;2023-08-17T00:38:57;2.00;;;0.60;;
37151;SDS011;23046;50.112;8.952;2023-08-17T00:39:08;2.07;;;0.70;;
37151;SDS011;23046;50.112;8.952;2023-08-17T00:39:18;2.20;;;0.73;;
37151;SDS011;23046;50.112;8.952;2023-08-17T00:39:30;1.00;;;0.73;;
37151;SDS011;23046;50.112;8.952;2023-08-17T00:39:40;1.10;;;0.70;;
37151;SDS011;23046;50.112;8.952;2023-08-17T00:39:50;1.13;;;0.80;;
37151;SDS011;23046;50.112;8.952;2023-08-17T00:40:00;1.03;;;0.80;;
37151;SDS011;23046;50.112;8.952;2023-08-17T00:40:11;1.50;;;0.87;;
37151;SDS011;23046;50.112;8.952;2023-08-17T00:40:21;1.75;;;0.90;;
37151;SDS011;23046;50.112;8.952;2023-08-17T00:40:31;1.63;;;0.87;;
37151;SDS011;23046;50.112;8.952;2023-08-17T00:40:42;1.07;;;0.80;;
37151;SDS011;23046;50.112;8.952;2023-08-17T00:40:52;0.80;;;0.80;;
37151;SDS011;23046;50.112;8.952;2023-08-17T00:41:02;0.90;;;0.80;;
37151;SDS011;23046;50.112;8.952;2023-08-17T00:41:12;0.90;;;0.80;;
37151;SDS011;23046;50.112;8.952;2023-08-17T00:41:22;0.97;;;0.90;;
37151;SDS011;23046;50.112;8.952;2023-08-17T00:41:33;1.00;;;0.90;;
37151;SDS011;23046;50.112;8.952;2023-08-17T00:41:43;1.10;;;1.00;;
37151;SDS011;23046;50.112;8.952;2023-08-17T00:41:53;2.20;;;0.90;;
37151;SDS011;23046;50.112;8.952;2023-08-17T00:42:04;2.27;;;0.90;;
37151;SDS011;23046;50.112;8.952;2023-08-17T00:42:14;2.47;;;0.83;;
37151;SDS011;23046;50.112;8.952;2023-08-17T00:42:25;1.27;;;0.80;;
37151;SDS011;23046;50.112;8.952;2023-08-17T00:42:36;1.63;;;0.90;;
37151;SDS011;23046;50.112;8.952;2023-08-17T00:42:46;1.40;;;0.90;;
37151;SDS011;23046;50.112;8.952;2023-08-17T00:42:56;1.50;;;0.90;;
37151;SDS011;23046;50.112;8.952;2023-08-17T00:43:07;1.50;;;0.90;;
37151;SDS011;23046;50.112;8.952;2023-08-17T00:43:17;1.40;;;0.98;;
37151;SDS011;23046;50.112;8.952;2023-08-17T00:43:28;1.20;;;0.97;;
37151;SDS011;23046;50.112;8.952;2023-08-17T00:43:39;0.82;;;0.82;;
37151;SDS011;23046;50.112;8.952;2023-08-17T00:43:49;0.80;;;0.80;;
37151;SDS011;23046;50.112;8.952;2023-08-17T00:44:00;0.98;;;0.88;;
37151;SDS011;23046;50.112;8.952;2023-08-17T00:44:11;1.10;;;0.93;;
37151;SDS011;23046;50.112;8.952;2023-08-17T00:44:21;1.50;;;1.00;;
37151;SDS011;23046;50.112;8.952;2023-08-17T00:44:31;1.40;;;1.00;;
37151;SDS011;23046;50.112;8.952;2023-08-17T00:44:42;1.30;;;0.90;;
37151;SDS011;23046;50.112;8.952;2023-08-17T00:44:52;2.10;;;0.80;;
37151;SDS011;23046;50.112;8.952;2023-08-17T00:45:03;2.00;;;0.80;;
37151;SDS011;23046;50.112;8.952;2023-08-17T00:45:13;1.83;;;0.80;;
37151;SDS011;23046;50.112;8.952;2023-08-17T00:45:25;0.73;;;0.73;;
37151;SDS011;23046;50.112;8.952;2023-08-17T00:45:36;0.75;;;0.70;;
37151;SDS011;23046;50.112;8.952;2023-08-17T00:45:47;1.60;;;0.80;;
37151;SDS011;23046;50.112;8.952;2023-08-17T00:45:57;2.30;;;0.90;;
37151;SDS011;23046;50.112;8.952;2023-08-17T00:46:08;2.58;;;0.90;;
37151;SDS011;23046;50.112;8.952;2023-08-17T00:46:18;1.67;;;0.93;;
37151;SDS011;23046;50.112;8.952;2023-08-17T00:46:30;1.10;;;1.00;;
37151;SDS011;23046;50.112;8.952;2023-08-17T00:46:40;1.30;;;0.97;;
37151;SDS011;23046;50.112;8.952;2023-08-17T00:46:50;1.30;;;0.88;;
37151;SDS011;23046;50.112;8.952;2023-08-17T00:47:02;1.42;;;0.80;;
37151;SDS011;23046;50.112;8.952;2023-08-17T00:47:14;0.93;;;0.73;;
37151;SDS011;23046;50.112;8.952;2023-08-17T00:47:24;1.00;;;0.70;;
37151;SDS011;23046;50.112;8.952;2023-08-17T00:47:35;0.70;;;0.70;;
37151;SDS011;23046;50.112;8.952;2023-08-17T00:47:46;0.70;;;0.70;;
37151;SDS011;23046;50.112;8.952;2023-08-17T00:47:56;0.70;;;0.70;;
37151;SDS011;23046;50.112;8.952;2023-08-17T00:48:09;0.73;;;0.73;;
37151;SDS011;23046;50.112;8.952;2023-08-17T00:48:19;1.10;;;0.73;;
37151;SDS011;23046;50.112;8.952;2023-08-17T00:48:31;1.73;;;0.75;;
37151;SDS011;23046;50.112;8.952;2023-08-17T00:48:42;1.42;;;0.80;;
37151;SDS011;23046;50.112;8.952;2023-08-17T00:48:53;1.20;;;0.80;;
37151;SDS011;23046;50.112;8.952;2023-08-17T00:49:05;0.70;;;0.70;;
37151;SDS011;23046;50.112;8.952;2023-08-17T00:49:16;0.65;;;0.65;;
37151;SDS011;23046;50.112;8.952;2023-08-17T00:49:26;0.90;;;0.60;;
37151;SDS011;23046;50.112;8.952;2023-08-17T00:49:36;1.30;;;0.80;;
37151;SDS011;23046;50.112;8.952;2023-08-17T00:49:47;1.23;;;0.80;;
37151;SDS011;23046;50.112;8.952;2023-08-17T00:49:57;1.00;;;0.83;;
37151;SDS011;23046;50.112;8.952;2023-08-17T00:50:08;0.80;;;0.75;;
37151;SDS011;23046;50.112;8.952;2023-08-17T00:50:18;0.77;;;0.70;;
37151;SDS011;23046;50.112;8.952;2023-08-17T00:50:28;1.07;;;0.80;;
37151;SDS011;23046;50.112;8.952;2023-08-17T00:50:39;1.20;;;0.80;;
37151;SDS011;23046;50.112;8.952;2023-08-17T00:50:50;1.03;;;0.80;;
37151;SDS011;23046;50.112;8.952;2023-08-17T00:51:02;0.77;;;0.77;;
37151;SDS011;23046;50.112;8.952;2023-08-17T00:51:12;1.50;;;0.80;;
37151;SDS011;23046;50.112;8.952;2023-08-17T00:51:23;1.80;;;0.80;;
37151;SDS011;23046;50.112;8.952;2023-08-17T00:51:34;2.05;;;0.80;;
37151;SDS011;23046;50.112;8.952;2023-08-17T00:51:46;1.40;;;0.80;;
37151;SDS011;23046;50.112;8.952;2023-08-17T00:51:57;1.83;;;0.85;;
37151;SDS011;23046;50.112;8.952;2023-08-17T00:52:08;1.50;;;0.80;;
37151;SDS011;23046;50.112;8.952;2023-08-17T00:52:18;1.73;;;0.85;;
37151;SDS011;23046;50.112;8.952;2023-08-17T00:52:29;1.20;;;0.80;;
37151;SDS011;23046;50.112;8.952;2023-08-17T00:52:40;1.85;;;0.80;;
37151;SDS011;23046;50.112;8.952;2023-08-17T00:52:51;2.13;;;0.90;;
37151;SDS011;23046;50.112;8.952;2023-08-17T00:53:02;2.40;;;1.10;;
37151;SDS011;23046;50.112;8.952;2023-08-17T00:53:12;1.75;;;1.00;;
37151;SDS011;23046;50.112;8.952;2023-08-17T00:53:23;1.30;;;0.88;;
37151;SDS011;23046;50.112;8.952;2023-08-17T00:53:35;0.90;;;0.70;;
37151;SDS011;23046;50.112;8.952;2023-08-17T00:53:45;0.87;;;0.77;;
37151;SDS011;23046;50.112;8.952;2023-08-17T00:53:57;0.90;;;0.70;;
37151;SDS011;23046;50.112;8.952;2023-08-17T00:54:07;0.80;;;0.80;;
37151;SDS011;23046;50.112;8.952;2023-08-17T00:54:19;0.93;;;0.90;;
37151;SDS011;23046;50.112;8.952;2023-08-17T00:54:33;1.30;;;1.02;;
37151;SDS011;23046;50.112;8.952;2023-08-17T00:54:43;1.30;;;0.90;;
37151;SDS011;23046;50.112;8.952;2023-08-17T00:54:54;1.10;;;0.60;;
37151;SDS011;23046;50.112;8.952;2023-08-17T00:55:05;0.90;;;0.60;;
37151;SDS011;23046;50.112;8.952;2023-08-17T00:55:15;0.85;;;0.70;;
37151;SDS011;23046;50.112;8.952;2023-08-17T00:55:25;0.77;;;0.77;;
37151;SDS011;23046;50.112;8.952;2023-08-17T00:55:36;0.80;;;0.80;;
37151;SDS011;23046;50.112;8.952;2023-08-17T00:55:46;1.02;;;0.90;;
37151;SDS011;23046;50.112;8.952;2023-08-17T00:55:56;1.33;;;0.87;;
37151;SDS011;23046;50.112;8.952;2023-08-17T00:56:07;1.30;;;0.80;;
37151;SDS011;23046;50.112;8.952;2023-08-17T00:56:18;1.13;;;0.70;;
37151;SDS011;23046;50.112;8.952;2023-08-17T00:56:28;1.00;;;0.70;;
37151;SDS011;23046;50.112;8.952;2023-08-17T00:56:39;1.73;;;0.80;;
37151;SDS011;23046;50.112;8.952;2023-08-17T00:56:49;2.07;;;0.80;;
37151;SDS011;23046;50.112;8.952;2023-08-17T00:56:59;1.90;;;0.77;;
37151;SDS011;23046;50.112;8.952;2023-08-17T00:57:10;1.67;;;0.70;;
37151;SDS011;23046;50.112;8.952;2023-08-17T00:57:21;1.40;;;0.77;;
37151;SDS011;23046;50.112;8.952;2023-08-17T00:57:31;1.38;;;0.85;;
37151;SDS011;23046;50.112;8.952;2023-08-17T00:57:42;1.00;;;0.80;;
37151;SDS011;23046;50.112;8.952;2023-08-17T00:57:53;0.90;;;0.80;;
37151;SDS011;23046;50.112;8.952;2023-08-17T00:58:05;1.17;;;0.70;;
37151;SDS011;23046;50.112;8.952;2023-08-17T00:58:17;1.30;;;0.70;;
37151;SDS011;23046;50.112;8.952;2023-08-17T00:58:28;1.50;;;0.70;;
37151;SDS011;23046;50.112;8.952;2023-08-17T00:58:38;0.80;;;0.70;;
37151;SDS011;23046;50.112;8.952;2023-08-17T00:58:51;0.70;;;0.70;;
37151;SDS011;23046;50.112;8.952;2023-08-17T00:59:02;0.80;;;0.70;;
37151;SDS011;23046;50.112;8.952;2023-08-17T00:59:12;1.00;;;0.73;;
37151;SDS011;23046;50.112;8.952;2023-08-17T00:59:23;1.33;;;0.80;;
37151;SDS011;23046;50.112;8.952;2023-08-17T00:59:33;1.43;;;0.80;;
37151;SDS011;23046;50.112;8.952;2023-08-17T00:59:43;1.23;;;0.90;;
37151;SDS011;23046;50.112;8.952;2023-08-17T00:59:54;0.93;;;0.88;;
37151;SDS011;23046;50.112;8.952;2023-08-17T01:00:05;0.80;;;0.80;;
37151;SDS011;23046;50.112;8.952;2023-08-17T01:00:15;0.73;;;0.73;;
37151;SDS011;23046;50.112;8.952;2023-08-17T01:00:25;0.90;;;0.75;;
37151;SDS011;23046;50.112;8.952;2023-08-17T01:00:40;1.17;;;0.80;;
37151;SDS011;23046;50.112;8.952;2023-08-17T01:00:50;1.07;;;0.90;;
37151;SDS011;23046;50.112;8.952;2023-08-17T01:01:00;0.83;;;0.83;;
37151;SDS011;23046;50.112;8.952;2023-08-17T01:01:11;0.80;;;0.80;;
37151;SDS011;23046;50.112;8.952;2023-08-17T01:01:22;0.90;;;0.80;;
37151;SDS011;23046;50.112;8.952;2023-08-17T01:01:32;1.20;;;0.70;;
37151;SDS011;23046;50.112;8.952;2023-08-17T01:01:42;1.20;;;0.70;;
37151;SDS011;23046;50.112;8.952;2023-08-17T01:01:53;0.88;;;0.80;;
37151;SDS011;23046;50.112;8.952;2023-08-17T01:02:03;0.93;;;0.80;;
37151;SDS011;23046;50.112;8.952;2023-08-17T01:02:14;1.58;;;0.90;;
37151;SDS011;23046;50.112;8.952;2023-08-17T01:02:24;1.67;;;0.70;;
37151;SDS011;23046;50.112;8.952;2023-08-17T01:02:34;1.40;;;0.80;;
37151;SDS011;23046;50.112;8.952;2023-08-17T01:02:45;1.10;;;0.77;;
37151;SDS011;23046;50.112;8.952;2023-08-17T01:02:56;0.85;;;0.80;;
37151;SDS011;23046;50.112;8.952;2023-08-17T01:03:06;1.00;;;0.80;;
37151;SDS011;23046;50.112;8.952;2023-08-17T01:03:17;0.85;;;0.80;;